createdAt,value
2022-12-27T00:00:52.952Z,95.56
2022-12-27T00:03:19.821Z,96.17
2022-12-27T00:05:47.744Z,95.59
2022-12-27T00:08:15.016Z,95.91
2022-12-27T00:10:41.758Z,96.38
2022-12-27T00:13:08.275Z,96.03
2022-12-27T00:15:35.469Z,96.12
2022-12-27T00:18:02.333Z,96.09
2022-12-27T00:20:28.813Z,96.28
2022-12-27T00:22:55.257Z,95.93
2022-12-27T00:25:21.805Z,96.45
2022-12-27T00:27:48.245Z,96.65
2022-12-27T00:30:14.747Z,96.88
2022-12-27T00:32:41.243Z,97.49
2022-12-27T00:35:08.060Z,97.70
2022-12-27T00:37:34.638Z,97.66
2022-12-27T00:40:01.162Z,97.10
2022-12-27T00:42:27.650Z,97.66
2022-12-27T00:44:54.513Z,97.71
2022-12-27T00:47:21.048Z,98.37
2022-12-27T00:49:47.471Z,98.13
2022-12-27T00:52:14.027Z,97.96
2022-12-27T00:54:40.444Z,98.05
2022-12-27T00:57:06.918Z,98.15
2022-12-27T00:59:33.516Z,98.53
2022-12-27T01:02:00.063Z,98.32
2022-12-27T01:04:26.654Z,98.47
2022-12-27T01:06:53.073Z,99.24
2022-12-27T01:09:19.546Z,98.95
2022-12-27T01:11:45.978Z,99.17
2022-12-27T01:14:12.455Z,98.96
2022-12-27T01:16:40.543Z,99.23
2022-12-27T01:19:07.189Z,99.19
2022-12-27T01:21:33.644Z,99.06
2022-12-27T01:24:00.151Z,98.63
2022-12-27T01:26:26.812Z,98.57
2022-12-27T01:28:53.881Z,99.10
2022-12-27T01:31:24.801Z,99.30
2022-12-27T01:33:55.460Z,99.06
2022-12-27T01:36:23.761Z,99.26
2022-12-27T01:38:50.358Z,99.42
2022-12-27T01:41:37.016Z,99.29
2022-12-27T01:44:49.338Z,99.67
2022-12-27T01:47:22.248Z,99.67
2022-12-27T01:49:57.692Z,100.00
2022-12-27T01:52:28.539Z,100.00
2022-12-27T01:54:59.684Z,100.00
2022-12-27T01:57:26.245Z,100.00
2022-12-27T01:59:53.347Z,100.00
2022-12-27T02:02:22.446Z,100.00
2022-12-27T02:04:49.390Z,100.00
2022-12-27T02:07:15.967Z,100.00
2022-12-27T02:09:48.123Z,100.00
2022-12-27T02:12:15.931Z,100.00
2022-12-27T02:14:49.120Z,100.00
2022-12-27T02:17:25.912Z,100.00
2022-12-27T02:20:03.407Z,100.00
2022-12-27T02:23:22.428Z,100.00
2022-12-27T02:26:27.931Z,100.00
2022-12-27T02:29:22.300Z,100.00
2022-12-27T02:32:16.925Z,100.00
2022-12-27T02:35:04.852Z,100.00
2022-12-27T02:37:38.219Z,100.00
2022-12-27T02:40:26.685Z,100.00
2022-12-27T02:43:12.567Z,100.00
2022-12-27T02:46:05.217Z,100.00
2022-12-27T02:48:50.305Z,100.00
2022-12-27T02:51:50.143Z,100.00
2022-12-27T02:54:35.535Z,100.00
2022-12-27T02:57:17.251Z,100.00
2022-12-27T03:00:30.464Z,100.00
2022-12-27T03:03:21.506Z,100.00
2022-12-27T03:06:19.400Z,100.00
2022-12-27T03:09:08.860Z,100.00
2022-12-27T03:12:03.018Z,100.00
2022-12-27T03:14:56.446Z,100.00
2022-12-27T03:17:39.518Z,100.00
2022-12-27T03:20:32.769Z,100.00
2022-12-27T03:23:19.759Z,100.00
2022-12-27T03:25:50.552Z,100.00
2022-12-27T03:28:40.954Z,100.00
2022-12-27T03:31:32.571Z,100.00
2022-12-27T03:34:25.451Z,100.00
2022-12-27T03:37:14.286Z,100.00
2022-12-27T03:40:01.712Z,100.00
2022-12-27T03:42:48.781Z,100.00
2022-12-27T03:45:15.400Z,100.00
2022-12-27T03:47:59.210Z,100.00
2022-12-27T03:50:35.548Z,100.00
2022-12-27T03:53:19.120Z,100.00
2022-12-27T03:55:45.665Z,100.00
2022-12-27T03:58:12.282Z,100.00
2022-12-27T04:00:39.790Z,100.00
2022-12-27T04:03:06.345Z,100.00
2022-12-27T04:05:32.859Z,100.00
2022-12-27T04:08:17.900Z,100.00
2022-12-27T04:11:04.215Z,100.00
2022-12-27T04:13:49.729Z,100.00
2022-12-27T04:16:34.498Z,100.00
2022-12-27T04:19:19.286Z,100.00
2022-12-27T04:22:04.398Z,100.00
2022-12-27T04:24:49.059Z,100.00
2022-12-27T04:27:33.863Z,100.00
2022-12-27T04:30:18.649Z,100.00
2022-12-27T04:33:04.003Z,100.00
2022-12-27T04:35:30.496Z,100.00
2022-12-27T04:37:56.936Z,100.00
2022-12-27T04:40:42.236Z,100.00
2022-12-27T04:43:28.195Z,100.00
2022-12-27T04:46:13.580Z,100.00
2022-12-27T04:48:58.938Z,100.00
2022-12-27T04:51:43.834Z,100.00
2022-12-27T04:54:46.793Z,100.00
2022-12-27T04:57:13.247Z,100.00
2022-12-27T04:59:58.206Z,100.00
2022-12-27T05:02:24.897Z,100.00
2022-12-27T05:04:51.562Z,100.00
2022-12-27T05:07:36.663Z,100.00
2022-12-27T05:10:23.866Z,100.00
2022-12-27T05:13:22.315Z,100.00
2022-12-27T05:15:49.331Z,100.00
2022-12-27T05:18:15.851Z,100.00
2022-12-27T05:20:42.363Z,100.00
2022-12-27T05:23:27.988Z,100.00
2022-12-27T05:25:54.441Z,100.00
2022-12-27T05:28:20.999Z,100.00
2022-12-27T05:30:47.557Z,100.00
2022-12-27T05:33:14.358Z,100.00
2022-12-27T05:35:41.594Z,100.00
2022-12-27T05:38:08.359Z,100.00
2022-12-27T05:40:35.480Z,100.00
2022-12-27T05:43:03.615Z,100.00
2022-12-27T05:45:31.331Z,100.00
2022-12-27T05:47:59.370Z,100.00
2022-12-27T05:50:26.038Z,100.00
2022-12-27T05:52:52.563Z,100.00
2022-12-27T05:55:19.063Z,100.00
2022-12-27T05:57:45.549Z,100.00
2022-12-27T06:00:12.766Z,100.00
2022-12-27T06:02:40.856Z,100.00
2022-12-27T06:05:08.084Z,100.00
2022-12-27T06:07:36.798Z,100.00
2022-12-27T06:10:05.525Z,100.00
2022-12-27T06:12:32.001Z,100.00
2022-12-27T06:14:58.501Z,100.00
2022-12-27T06:17:25.035Z,100.00
2022-12-27T06:19:56.825Z,100.00
2022-12-27T06:22:24.263Z,100.00
2022-12-27T06:24:50.791Z,100.00
2022-12-27T06:27:17.408Z,100.00
2022-12-27T06:29:43.930Z,100.00
2022-12-27T06:32:10.397Z,100.00
2022-12-27T06:34:36.878Z,100.00
2022-12-27T06:37:03.388Z,100.00
2022-12-27T06:39:29.948Z,100.00
2022-12-27T06:41:56.567Z,100.00
2022-12-27T06:44:23.114Z,100.00
2022-12-27T06:46:49.616Z,100.00
2022-12-27T06:49:16.079Z,100.00
2022-12-27T06:51:42.591Z,100.00
2022-12-27T06:54:09.120Z,100.00
2022-12-27T06:56:35.612Z,100.00
2022-12-27T06:59:02.150Z,100.00
2022-12-27T07:01:28.825Z,100.00
2022-12-27T07:03:58.646Z,100.00
2022-12-27T07:06:27.258Z,100.00
2022-12-27T07:08:55.945Z,100.00
2022-12-27T07:11:23.405Z,100.00
2022-12-27T07:13:51.597Z,100.00
2022-12-27T07:16:21.563Z,100.00
2022-12-27T07:18:50.053Z,100.00
2022-12-27T07:21:20.984Z,100.00
2022-12-27T07:23:48.639Z,100.00
2022-12-27T07:26:18.912Z,100.00
2022-12-27T07:28:45.487Z,100.00
2022-12-27T07:31:17.918Z,100.00
2022-12-27T07:33:45.190Z,100.00
2022-12-27T07:36:17.873Z,100.00
2022-12-27T07:38:46.036Z,100.00
2022-12-27T07:41:13.469Z,100.00
2022-12-27T07:43:40.494Z,100.00
2022-12-27T07:46:11.296Z,100.00
2022-12-27T07:48:38.287Z,100.00
2022-12-27T07:51:05.769Z,100.00
2022-12-27T07:53:32.892Z,100.00
2022-12-27T07:55:59.553Z,100.00
2022-12-27T07:58:26.613Z,100.00
2022-12-27T08:00:53.243Z,100.00
2022-12-27T08:03:19.895Z,100.00
2022-12-27T08:05:52.661Z,100.00
2022-12-27T08:08:22.973Z,100.00
2022-12-27T08:10:49.632Z,100.00
2022-12-27T08:13:16.131Z,100.00
2022-12-27T08:15:43.373Z,100.00
2022-12-27T08:18:10.106Z,100.00
2022-12-27T08:20:36.838Z,100.00
2022-12-27T08:23:03.318Z,100.00
2022-12-27T08:25:29.887Z,100.00
2022-12-27T08:28:07.608Z,100.00
2022-12-27T08:30:34.806Z,100.00
2022-12-27T08:33:02.529Z,100.00
2022-12-27T08:38:15.540Z,100.00
2022-12-27T08:40:43.883Z,100.00
2022-12-27T08:43:11.539Z,100.00
2022-12-27T08:45:38.839Z,100.00
2022-12-27T08:48:06.099Z,100.00
2022-12-27T08:50:33.540Z,100.00
2022-12-27T08:53:01.532Z,100.00
2022-12-27T08:55:29.284Z,100.00
2022-12-27T08:57:59.825Z,100.00
2022-12-27T09:00:27.127Z,100.00
2022-12-27T09:02:54.365Z,100.00
2022-12-27T09:05:22.171Z,100.00
2022-12-27T09:07:49.086Z,100.00
2022-12-27T09:10:16.298Z,100.00
2022-12-27T09:12:42.844Z,100.00
2022-12-27T09:15:09.743Z,100.00
2022-12-27T09:17:36.304Z,100.00
2022-12-27T09:20:03.408Z,100.00
2022-12-27T09:22:29.930Z,100.00
2022-12-27T09:24:56.435Z,100.00
2022-12-27T09:27:23.044Z,100.00
2022-12-27T09:29:49.524Z,100.00
2022-12-27T09:32:15.992Z,100.00
2022-12-27T09:34:42.484Z,100.00
2022-12-27T09:37:08.959Z,100.00
2022-12-27T09:39:36.190Z,100.00
2022-12-27T09:45:12.121Z,100.00
2022-12-27T09:47:49.556Z,100.00
2022-12-27T09:50:25.031Z,100.00
2022-12-27T09:52:56.856Z,100.00
2022-12-27T09:55:29.924Z,100.00
2022-12-27T09:58:07.951Z,100.00
2022-12-27T10:00:36.036Z,100.00
2022-12-27T10:03:07.074Z,100.00
2022-12-27T10:05:37.035Z,100.00
2022-12-27T10:08:19.591Z,100.00
2022-12-27T10:10:56.846Z,100.00
2022-12-27T10:13:23.352Z,100.00
2022-12-27T10:16:12.618Z,100.00
2022-12-27T10:19:07.713Z,100.00
2022-12-27T10:21:37.395Z,100.00
2022-12-27T10:24:20.809Z,100.00
2022-12-27T10:26:47.349Z,100.00
2022-12-27T10:29:25.076Z,100.00
2022-12-27T10:31:52.262Z,100.00
2022-12-27T10:34:24.613Z,100.00
2022-12-27T10:36:53.055Z,100.00
2022-12-27T10:39:32.145Z,100.00
2022-12-27T10:42:16.895Z,100.00
2022-12-27T10:44:43.408Z,100.00
2022-12-27T10:47:11.228Z,100.00
2022-12-27T10:49:39.677Z,100.00
2022-12-27T10:52:24.484Z,100.00
2022-12-27T10:54:53.048Z,100.00
2022-12-27T10:57:33.384Z,100.00
2022-12-27T11:00:17.488Z,100.00
2022-12-27T11:02:51.391Z,100.00
2022-12-27T11:05:24.758Z,100.00
2022-12-27T11:07:51.704Z,100.00
2022-12-27T11:10:24.326Z,100.00
2022-12-27T11:12:57.817Z,100.00
2022-12-27T11:15:25.745Z,100.00
2022-12-27T11:17:55.442Z,100.00
2022-12-27T11:20:23.836Z,100.00
2022-12-27T11:22:55.701Z,100.00
2022-12-27T11:25:22.595Z,100.00
2022-12-27T11:27:57.744Z,100.00
2022-12-27T11:30:32.456Z,100.00
2022-12-27T11:33:24.555Z,100.00
2022-12-27T11:35:54.330Z,100.00
2022-12-27T11:38:29.888Z,100.00
2022-12-27T11:41:11.279Z,100.00
2022-12-27T11:43:56.400Z,100.00
2022-12-27T11:46:25.907Z,100.00
2022-12-27T11:48:57.509Z,100.00
2022-12-27T11:51:41.411Z,100.00
2022-12-27T11:54:07.892Z,100.00
2022-12-27T11:56:36.984Z,100.00
2022-12-27T11:59:34.964Z,100.00
2022-12-27T12:02:32.810Z,100.00
2022-12-27T12:05:32.770Z,100.00
2022-12-27T12:08:19.839Z,100.00
2022-12-27T12:11:04.510Z,100.00
2022-12-27T12:13:51.745Z,100.00
2022-12-27T12:16:34.441Z,100.00
2022-12-27T12:19:12.702Z,100.00
2022-12-27T12:22:07.089Z,100.00
2022-12-27T12:25:08.963Z,100.00
2022-12-27T12:27:47.396Z,100.00
2022-12-27T12:30:27.326Z,100.00
2022-12-27T12:33:05.897Z,100.00
2022-12-27T12:35:54.207Z,100.00
2022-12-27T12:38:35.348Z,100.00
2022-12-27T12:41:25.702Z,100.00
2022-12-27T12:44:04.376Z,99.84
2022-12-27T12:46:44.900Z,100.00
2022-12-27T12:49:35.776Z,100.00
2022-12-27T12:52:22.409Z,100.00
2022-12-27T12:54:51.694Z,100.00
2022-12-27T12:57:44.873Z,100.00
2022-12-27T13:00:21.223Z,100.00
2022-12-27T13:02:56.927Z,100.00
2022-12-27T13:06:03.855Z,100.00
2022-12-27T13:08:38.491Z,100.00
2022-12-27T13:11:27.885Z,100.00
2022-12-27T13:14:14.577Z,100.00
2022-12-27T13:16:53.908Z,100.00
2022-12-27T13:19:50.874Z,100.00
2022-12-27T13:22:40.799Z,99.88
2022-12-27T13:25:25.347Z,99.71
2022-12-27T13:28:05.037Z,100.00
2022-12-27T13:30:45.711Z,99.37
2022-12-27T13:33:35.365Z,100.00
2022-12-27T13:36:14.013Z,100.00
2022-12-27T13:38:57.834Z,99.89
2022-12-27T13:41:41.809Z,100.00
2022-12-27T13:44:35.341Z,100.00
2022-12-27T13:47:37.050Z,100.00
2022-12-27T13:50:34.524Z,100.00
2022-12-27T13:53:40.075Z,100.00
2022-12-27T13:56:54.008Z,100.00
2022-12-27T13:59:50.259Z,100.00
2022-12-27T14:02:22.943Z,100.00
2022-12-27T14:05:04.908Z,100.00
2022-12-27T14:08:08.724Z,100.00
2022-12-27T14:10:36.742Z,100.00
2022-12-27T14:13:07.692Z,100.00
2022-12-27T14:15:43.099Z,100.00
2022-12-27T14:18:26.026Z,100.00
2022-12-27T14:21:06.686Z,100.00
2022-12-27T14:23:42.066Z,100.00
2022-12-27T14:26:20.656Z,100.00
2022-12-27T14:29:02.428Z,100.00
2022-12-27T14:31:31.903Z,100.00
2022-12-27T14:34:17.045Z,100.00
2022-12-27T14:37:00.360Z,100.00
2022-12-27T14:40:10.148Z,100.00
2022-12-27T14:42:45.681Z,100.00
2022-12-27T14:45:37.156Z,100.00
2022-12-27T14:48:39.269Z,100.00
2022-12-27T14:52:00.344Z,100.00
2022-12-27T14:55:01.982Z,100.00
2022-12-27T14:58:00.696Z,100.00
2022-12-27T15:00:34.050Z,100.00
2022-12-27T15:03:41.298Z,100.00
2022-12-27T15:06:35.862Z,100.00
2022-12-27T15:09:31.914Z,100.00
2022-12-27T15:12:38.325Z,100.00
2022-12-27T15:15:27.425Z,100.00
2022-12-27T15:18:21.114Z,100.00
2022-12-27T15:21:00.072Z,100.00
2022-12-27T15:24:02.950Z,100.00
2022-12-27T15:26:36.339Z,100.00
2022-12-27T15:29:21.528Z,100.00
2022-12-27T15:32:25.488Z,100.00
2022-12-27T15:35:16.775Z,100.00
2022-12-27T15:38:01.983Z,100.00
2022-12-27T15:40:34.281Z,100.00
2022-12-27T15:43:19.537Z,100.00
2022-12-27T15:45:53.219Z,100.00
2022-12-27T15:48:59.697Z,100.00
2022-12-27T15:51:36.731Z,100.00
2022-12-27T15:54:09.176Z,100.00
2022-12-27T15:57:10.940Z,100.00
2022-12-27T15:59:48.110Z,100.00
2022-12-27T16:02:17.516Z,100.00
2022-12-27T16:04:53.930Z,100.00
2022-12-27T16:07:42.519Z,100.00
2022-12-27T16:10:30.916Z,100.00
2022-12-27T16:13:12.668Z,100.00
2022-12-27T16:15:47.643Z,100.00
2022-12-27T16:18:16.939Z,100.00
2022-12-27T16:21:01.408Z,100.00
2022-12-27T16:23:32.458Z,100.00
2022-12-27T16:26:05.564Z,100.00
2022-12-27T16:28:34.989Z,100.00
2022-12-27T16:31:03.766Z,100.00
2022-12-27T16:33:40.975Z,100.00
2022-12-27T16:36:19.063Z,100.00
2022-12-27T16:38:55.209Z,100.00
2022-12-27T16:41:27.446Z,100.00
2022-12-27T16:44:00.159Z,100.00
2022-12-27T16:46:50.059Z,100.00
2022-12-27T16:49:55.421Z,100.00
2022-12-27T16:52:36.354Z,100.00
2022-12-27T16:55:22.996Z,100.00
2022-12-27T16:57:50.680Z,100.00
2022-12-27T17:00:37.740Z,100.00
2022-12-27T17:03:22.213Z,100.00
2022-12-27T17:06:30.061Z,100.00
2022-12-27T17:08:36.752Z,100.00
2022-12-27T17:11:29.865Z,100.00
2022-12-27T17:14:08.747Z,100.00
2022-12-27T17:16:47.488Z,100.00
2022-12-27T17:19:28.383Z,100.00
2022-12-27T17:22:00.047Z,100.00
2022-12-27T17:24:26.595Z,100.00
2022-12-27T17:27:13.022Z,100.00
2022-12-27T17:30:17.496Z,100.00
2022-12-27T17:33:04.898Z,100.00
2022-12-27T17:36:04.011Z,100.00
2022-12-27T17:38:38.644Z,100.00
2022-12-27T17:41:54.069Z,100.00
2022-12-27T17:44:39.113Z,100.00
2022-12-27T17:47:15.797Z,100.00
2022-12-27T17:49:43.249Z,100.00
2022-12-27T17:52:36.549Z,100.00
2022-12-27T17:55:32.377Z,100.00
2022-12-27T17:58:02.858Z,100.00
2022-12-27T18:00:33.833Z,99.71
2022-12-27T18:03:09.851Z,99.58
2022-12-27T18:05:41.696Z,100.00
2022-12-27T18:08:25.217Z,100.00
2022-12-27T18:10:51.982Z,99.66
2022-12-27T18:13:20.823Z,99.41
2022-12-27T18:15:49.394Z,99.10
2022-12-27T18:18:29.028Z,99.73
2022-12-27T18:21:00.798Z,99.81
2022-12-27T18:23:27.974Z,99.28
2022-12-27T18:26:12.789Z,99.21
2022-12-27T18:28:40.685Z,99.83
2022-12-27T18:31:13.114Z,99.92
2022-12-27T18:33:44.514Z,99.68
2022-12-27T18:36:26.323Z,99.21
2022-12-27T18:38:58.096Z,99.02
2022-12-27T18:41:25.883Z,99.02
2022-12-27T18:44:03.377Z,98.49
2022-12-27T18:46:33.774Z,98.89
2022-12-27T18:49:00.959Z,98.97
2022-12-27T18:51:36.841Z,98.21
2022-12-27T18:54:32.045Z,98.12
2022-12-27T18:57:01.467Z,97.68
2022-12-27T18:59:33.637Z,98.18
2022-12-27T19:02:24.674Z,98.00
2022-12-27T19:05:18.951Z,98.10
2022-12-27T19:08:00.813Z,97.48
2022-12-27T19:10:30.885Z,97.38
2022-12-27T19:12:57.648Z,97.48
2022-12-27T19:15:29.203Z,97.09
2022-12-27T19:18:01.016Z,97.78
2022-12-27T19:20:34.723Z,97.69
2022-12-27T19:23:26.039Z,97.80
2022-12-27T19:26:27.250Z,97.79
2022-12-27T19:29:08.011Z,97.34
2022-12-27T19:31:36.425Z,97.35
2022-12-27T19:34:08.982Z,97.00
2022-12-27T19:36:40.710Z,96.57
2022-12-27T19:39:18.218Z,96.70
2022-12-27T19:41:44.910Z,97.00
2022-12-27T19:44:11.685Z,96.28
2022-12-27T19:46:38.292Z,96.50
2022-12-27T19:49:40.158Z,96.13
2022-12-27T19:51:53.638Z,95.75
2022-12-27T19:54:21.467Z,95.82
2022-12-27T19:56:47.960Z,96.16
2022-12-27T19:59:27.005Z,95.95
2022-12-27T20:01:53.782Z,96.09
2022-12-27T20:04:20.406Z,95.64
2022-12-27T20:06:48.734Z,94.91
2022-12-27T20:09:18.690Z,95.01
2022-12-27T20:11:46.043Z,95.03
2022-12-27T20:14:14.467Z,95.14
2022-12-27T20:16:41.426Z,94.96
2022-12-27T20:19:11.231Z,94.93
2022-12-27T20:21:39.136Z,94.19
2022-12-27T20:24:05.962Z,93.95
2022-12-27T20:26:32.523Z,93.93
2022-12-27T20:29:00.127Z,93.89
2022-12-27T20:31:26.664Z,93.88
2022-12-27T20:33:55.267Z,93.61
2022-12-27T20:36:22.865Z,93.52
2022-12-27T20:38:49.521Z,94.01
2022-12-27T20:41:18.333Z,93.60
2022-12-27T20:43:45.008Z,93.65
2022-12-27T20:46:14.211Z,93.43
2022-12-27T20:48:42.328Z,93.61
2022-12-27T20:51:10.924Z,93.12
2022-12-27T20:53:37.652Z,93.35
2022-12-27T20:56:05.904Z,93.52
2022-12-27T20:58:33.267Z,93.20
2022-12-27T21:01:11.143Z,92.92
2022-12-27T21:03:39.008Z,92.79
2022-12-27T21:06:08.449Z,93.63
2022-12-27T21:08:40.395Z,92.60
2022-12-27T21:11:12.397Z,92.44
2022-12-27T21:13:40.307Z,92.57
2022-12-27T21:16:12.465Z,92.66
2022-12-27T21:18:38.995Z,92.32
2022-12-27T21:21:08.328Z,92.67
2022-12-27T21:23:37.103Z,92.60
2022-12-27T21:26:09.548Z,92.70
2022-12-27T21:28:36.877Z,92.84
2022-12-27T21:31:04.430Z,92.57
2022-12-27T21:33:32.342Z,91.91
2022-12-27T21:36:04.868Z,92.03
2022-12-27T21:38:32.030Z,91.54
2022-12-27T21:41:07.189Z,92.11
2022-12-27T21:43:34.476Z,91.77
2022-12-27T21:46:09.111Z,92.22
2022-12-27T21:48:37.708Z,92.17
2022-12-27T21:51:08.375Z,92.17
2022-12-27T21:53:35.465Z,92.53
2022-12-27T21:56:02.104Z,92.21
2022-12-27T21:58:36.838Z,92.47
2022-12-27T22:01:24.420Z,92.30
2022-12-27T22:03:52.571Z,92.85
2022-12-27T22:06:26.658Z,92.34
2022-12-27T22:08:55.871Z,92.76
2022-12-27T22:11:24.050Z,92.79
2022-12-27T22:13:51.144Z,92.70
2022-12-27T22:16:31.782Z,92.58
2022-12-27T22:18:59.076Z,92.93
2022-12-27T22:21:28.721Z,92.85
2022-12-27T22:23:57.811Z,92.74
2022-12-27T22:26:28.864Z,92.99
2022-12-27T22:28:56.075Z,93.08
2022-12-27T22:31:26.216Z,93.26
2022-12-27T22:33:53.023Z,93.40
2022-12-27T22:36:22.480Z,93.36
2022-12-27T22:38:53.647Z,93.39
2022-12-27T22:41:28.923Z,93.41
2022-12-27T22:44:01.288Z,93.09
2022-12-27T22:46:35.207Z,93.68
2022-12-27T22:49:15.822Z,93.64
2022-12-27T22:51:42.489Z,93.96
2022-12-27T22:54:09.042Z,94.65
2022-12-27T22:56:38.377Z,95.26
2022-12-27T22:59:13.232Z,96.49
2022-12-27T23:01:41.379Z,97.38
2022-12-27T23:04:10.995Z,98.00
2022-12-27T23:06:37.640Z,98.22
2022-12-27T23:09:05.315Z,98.98
2022-12-27T23:11:35.784Z,99.55
2022-12-27T23:14:09.378Z,99.32
2022-12-27T23:16:41.796Z,100.00
2022-12-27T23:19:08.901Z,100.00
2022-12-27T23:21:35.712Z,100.00
2022-12-27T23:24:02.360Z,100.00
2022-12-27T23:26:29.018Z,100.00
2022-12-27T23:28:55.633Z,100.00
2022-12-27T23:31:23.766Z,100.00
2022-12-27T23:33:51.433Z,100.00
2022-12-27T23:36:18.584Z,100.00
2022-12-27T23:38:45.495Z,100.00
2022-12-27T23:41:18.563Z,100.00
2022-12-27T23:43:54.569Z,100.00
2022-12-27T23:46:23.796Z,100.00
2022-12-27T23:48:51.258Z,100.00
2022-12-27T23:51:18.227Z,100.00
2022-12-27T23:53:44.948Z,100.00
2022-12-27T23:56:15.587Z,100.00
2022-12-27T23:58:43.204Z,100.00
